Time;durP1;ratioP1;P1;durP2;ratioP2;P2;SDS_P1;SDS_P2;PMS_P1;PMS_P2;Temp;Humidity;BMP_temperature;BMP_pressure;BME280_temperature;BME280_humidity;BME280_pressure;Samples;Min_cycle;Max_cycle;Signal;HPM_P1;HPM_P2
2021/08/01 00:00:12;;;;;;;1.83;1.50;;;;;;;34.02;28.70;97594.97;5070599;28;20027;-87
2021/08/01 00:02:40;;;;;;;1.20;1.05;;;;;;;33.85;28.85;97590.50;5064567;28;20037;-86
2021/08/01 00:05:07;;;;;;;0.98;0.90;;;;;;;33.92;28.30;97587.94;5057011;28;20025;-86
2021/08/01 00:07:34;;;;;;;1.23;1.05;;;;;;;34.05;28.06;97591.09;5064619;28;20029;-86
2021/08/01 00:10:02;;;;;;;1.52;1.20;;;;;;;34.21;28.06;97595.31;5068680;28;20056;-86
2021/08/01 00:12:28;;;;;;;1.40;1.00;;;;;;;34.33;28.26;97599.72;5070830;28;20043;-86
2021/08/01 00:14:55;;;;;;;1.20;1.10;;;;;;;34.34;27.53;97597.63;5067730;28;20028;-86
2021/08/01 00:17:22;;;;;;;1.08;0.98;;;;;;;33.85;27.88;97593.34;5071940;28;20044;-85
2021/08/01 00:19:48;;;;;;;1.92;0.90;;;;;;;33.87;27.81;97599.31;5068426;28;20028;-86
2021/08/01 00:22:14;;;;;;;2.15;0.90;;;;;;;34.00;28.08;97597.53;5072855;28;20039;-86
2021/08/01 00:24:41;;;;;;;1.33;1.20;;;;;;;33.64;28.89;97603.38;5071528;28;20116;-86
2021/08/01 00:27:07;;;;;;;1.52;1.10;;;;;;;33.31;29.16;97601.09;5068729;28;20469;-86
2021/08/01 00:29:33;;;;;;;1.58;1.48;;;;;;;33.58;28.96;97596.88;5068643;28;20492;-85
2021/08/01 00:32:01;;;;;;;1.20;0.98;;;;;;;33.79;28.97;97595.41;5070330;28;20066;-85
2021/08/01 00:34:27;;;;;;;3.15;1.10;;;;;;;33.87;29.09;97591.56;5066363;28;20037;-86
2021/08/01 00:36:54;;;;;;;2.47;1.50;;;;;;;33.49;29.70;97585.69;5066156;28;20032;-86
2021/08/01 00:39:20;;;;;;;1.65;0.95;;;;;;;33.48;28.96;97586.97;5062727;28;20396;-85
2021/08/01 00:41:46;;;;;;;1.45;1.02;;;;;;;33.30;29.95;97588.94;5070251;28;20488;-86
2021/08/01 00:44:12;;;;;;;1.00;0.82;;;;;;;33.38;29.96;97587.19;5069608;28;20119;-85
2021/08/01 00:46:41;;;;;;;0.98;0.63;;;;;;;33.61;29.44;97585.22;5068523;28;20045;-85
2021/08/01 00:49:07;;;;;;;1.20;1.10;;;;;;;33.62;29.48;97583.16;5064161;28;20040;-86
2021/08/01 00:51:33;;;;;;;1.33;1.05;;;;;;;33.80;29.77;97589.19;5060883;28;20032;-85
2021/08/01 00:54:04;;;;;;;1.15;0.90;;;;;;;33.92;28.35;97587.94;5068635;28;20032;-86
2021/08/01 00:56:30;;;;;;;1.48;1.05;;;;;;;34.07;28.31;97590.63;5069107;28;20094;-85
2021/08/01 00:58:56;;;;;;;1.25;0.80;;;;;;;33.92;28.81;97590.00;5056148;28;20051;-86
2021/08/01 01:01:43;;;;;;;1.65;1.10;;;;;;;34.04;28.10;97585.94;5058608;28;20036;-86
2021/08/01 01:04:31;;;;;;;1.35;1.00;;;;;;;34.27;27.98;97598.94;5059413;28;20051;-86
2021/08/01 01:07:01;;;;;;;1.50;1.27;;;;;;;34.40;28.05;97590.66;5070920;28;20085;-85
2021/08/01 01:09:37;;;;;;;0.80;0.75;;;;;;;34.37;28.00;97591.69;5066712;28;20040;-85
2021/08/01 01:12:11;;;;;;;0.88;0.85;;;;;;;34.34;27.69;97601.28;5067120;28;20064;-86
2021/08/01 01:14:46;;;;;;;1.08;0.98;;;;;;;34.44;27.37;97599.75;5065885;28;20500;-85
2021/08/01 01:17:15;;;;;;;1.13;1.02;;;;;;;34.48;27.78;97605.97;5063291;28;20127;-85
2021/08/01 01:20:12;;;;;;;1.05;0.90;;;;;;;34.29;27.71;97612.66;5063454;28;20036;-85
2021/08/01 01:22:57;;;;;;;1.42;1.05;;;;;;;33.84;28.79;97618.19;5069416;28;20138;-85
2021/08/01 01:25:41;;;;;;;1.98;1.52;;;;;;;33.61;29.14;97607.25;5066591;28;20098;-85
2021/08/01 01:28:17;;;;;;;1.17;0.88;;;;;;;33.42;29.46;97604.78;5067066;28;20043;-85
2021/08/01 01:30:52;;;;;;;1.30;1.13;;;;;;;33.68;28.68;97604.69;5070670;28;20058;-85
2021/08/01 01:33:23;;;;;;;1.02;0.93;;;;;;;33.91;28.69;97603.47;5067779;28;20104;-85
2021/08/01 01:35:52;;;;;;;2.03;0.90;;;;;;;33.95;28.66;97595.47;5065101;28;20485;-85
2021/08/01 01:38:21;;;;;;;2.10;1.90;;;;;;;33.20;29.82;97593.28;5064369;28;20036;-85
2021/08/01 01:40:53;;;;;;;2.53;1.75;;;;;;;32.19;31.19;97575.88;5068631;28;20104;-85
2021/08/01 01:43:24;;;;;;;1.55;1.40;;;;;;;32.21;32.36;97564.78;5065793;28;20039;-86
2021/08/01 01:45:52;;;;;;;1.98;1.35;;;;;;;32.65;31.22;97567.28;5072271;28;20048;-86
2021/08/01 01:48:18;;;;;;;2.55;1.10;;;;;;;33.04;30.89;97568.38;5073897;28;20040;-85
2021/08/01 01:50:46;;;;;;;1.20;1.10;;;;;;;33.57;29.81;97564.78;5070380;28;20136;-86
2021/08/01 01:53:14;;;;;;;1.15;1.05;;;;;;;33.88;28.89;97567.47;5073520;28;20496;-86
2021/08/01 01:55:40;;;;;;;1.92;1.15;;;;;;;33.84;29.16;97560.47;5074397;28;20513;-86
2021/08/01 01:58:11;;;;;;;1.35;1.15;;;;;;;33.92;29.08;97561.53;5071237;28;20492;-86
2021/08/01 02:00:38;;;;;;;1.30;1.13;;;;;;;33.95;28.92;97566.19;5070023;28;20120;-86
2021/08/01 02:03:05;;;;;;;2.25;1.15;;;;;;;34.20;28.36;97556.69;5071761;28;20085;-86
2021/08/01 02:05:31;;;;;;;2.63;1.25;;;;;;;34.33;28.27;97565.50;5074985;28;20033;-86
2021/08/01 02:07:57;;;;;;;3.85;1.20;;;;;;;34.35;28.29;97565.00;5070959;28;20533;-87
2021/08/01 02:10:38;;;;;;;2.83;1.55;;;;;;;33.92;29.48;97561.53;5069917;28;20381;-86
2021/08/01 02:13:07;;;;;;;1.30;1.20;;;;;;;33.93;28.76;97557.38;5070924;28;20032;-86
2021/08/01 02:15:48;;;;;;;1.38;1.17;;;;;;;34.02;28.59;97554.31;5070333;28;20067;-86
2021/08/01 02:18:38;;;;;;;3.10;1.23;;;;;;;34.16;28.81;97546.84;5069051;28;20443;-86
2021/08/01 02:21:05;;;;;;;1.73;1.17;;;;;;;34.16;28.60;97544.78;5073411;28;20438;-86
2021/08/01 02:23:37;;;;;;;1.33;1.23;;;;;;;34.00;29.23;97536.94;5072763;28;20051;-85
2021/08/01 02:26:04;;;;;;;2.92;1.25;;;;;;;33.84;28.89;97540.53;5073676;28;20025;-85
2021/08/01 02:28:32;;;;;;;1.23;0.93;;;;;;;34.03;28.83;97533.84;5072553;28;20036;-85
2021/08/01 02:31:00;;;;;;;2.03;1.25;;;;;;;33.98;28.70;97525.28;5070972;28;20553;-85
2021/08/01 02:33:28;;;;;;;1.73;1.27;;;;;;;33.68;29.11;97530.63;5070620;28;20052;-85
2021/08/01 02:36:01;;;;;;;1.00;0.90;;;;;;;33.44;29.58;97533.13;5069562;28;20380;-85
2021/08/01 02:38:28;;;;;;;2.17;1.65;;;;;;;33.32;30.23;97529.47;5066467;28;20036;-85
2021/08/01 02:40:57;;;;;;;1.90;1.00;;;;;;;33.40;29.52;97524.81;5070320;28;20025;-86
2021/08/01 02:43:29;;;;;;;1.48;1.13;;;;;;;33.62;28.96;97518.47;5070939;28;20538;-86
2021/08/01 02:45:56;;;;;;;1.33;1.02;;;;;;;33.95;28.54;97526.31;5070728;28;20056;-85
2021/08/01 02:48:25;;;;;;;1.35;1.20;;;;;;;33.99;28.01;97523.97;5073848;28;20040;-85
2021/08/01 02:50:59;;;;;;;0.93;0.82;;;;;;;33.80;28.50;97523.69;5072295;28;20037;-85
2021/08/01 02:53:27;;;;;;;2.03;1.25;;;;;;;33.78;29.01;97519.78;5073172;28;20070;-85
2021/08/01 02:55:57;;;;;;;1.65;1.45;;;;;;;33.41;29.78;97515.00;5069984;28;20049;-85
2021/08/01 02:58:27;;;;;;;2.60;1.30;;;;;;;33.47;29.35;97517.84;5067985;28;20029;-84
2021/08/01 03:00:53;;;;;;;1.10;1.00;;;;;;;33.93;28.59;97517.50;5069131;28;20028;-85
2021/08/01 03:03:20;;;;;;;1.10;0.98;;;;;;;34.30;28.36;97526.66;5069359;28;20488;-85
2021/08/01 03:05:47;;;;;;;2.80;2.47;;;;;;;33.78;28.92;97522.63;5068385;28;20078;-85
2021/08/01 03:08:14;;;;;;;3.47;1.42;;;;;;;33.31;30.10;97513.66;5071409;28;20050;-85
2021/08/01 03:10:48;;;;;;;1.63;1.45;;;;;;;32.42;31.45;97505.81;5071000;28;20032;-85
2021/08/01 03:13:14;;;;;;;1.95;1.50;;;;;;;32.18;32.04;97502.53;5072460;28;20518;-85
2021/08/01 03:15:43;;;;;;;1.50;1.33;;;;;;;32.46;31.92;97497.84;5068169;28;20488;-85
2021/08/01 03:18:09;;;;;;;1.50;1.40;;;;;;;32.85;31.35;97493.22;5070375;28;20032;-85
2021/08/01 03:20:36;;;;;;;1.08;0.82;;;;;;;33.44;30.19;97496.13;5071499;28;20023;-85
2021/08/01 03:23:02;;;;;;;1.17;1.08;;;;;;;34.03;29.35;97498.88;5071935;28;20060;-85
2021/08/01 03:25:28;;;;;;;1.35;1.10;;;;;;;34.53;28.78;97496.88;5071828;28;20024;-84
2021/08/01 03:27:54;;;;;;;1.48;1.30;;;;;;;34.63;28.75;97503.88;5071845;28;20361;-85
2021/08/01 03:30:21;;;;;;;1.30;1.20;;;;;;;34.26;29.42;97506.16;5073748;28;20029;-85
2021/08/01 03:32:47;;;;;;;2.33;1.50;;;;;;;33.98;29.63;97511.03;5069520;28;20035;-84
2021/08/01 03:35:13;;;;;;;3.05;1.63;;;;;;;34.31;29.20;97519.63;5069416;28;20039;-85
2021/08/01 03:37:39;;;;;;;1.38;1.08;;;;;;;34.49;28.97;97513.44;5072886;28;20032;-85
2021/08/01 03:40:05;;;;;;;1.52;1.38;;;;;;;34.56;28.68;97512.16;5069211;28;20073;-85
2021/08/01 03:42:31;;;;;;;0.98;0.90;;;;;;;34.61;28.68;97508.53;5072482;28;20040;-85
2021/08/01 03:44:57;;;;;;;1.83;1.60;;;;;;;33.46;30.38;97496.38;5070596;28;20048;-85
2021/08/01 03:47:23;;;;;;;2.72;1.17;;;;;;;33.47;30.75;97491.47;5069804;28;20044;-85
2021/08/01 03:49:49;;;;;;;1.55;0.98;;;;;;;33.93;29.40;97481.25;5072112;28;20166;-85
2021/08/01 03:52:16;;;;;;;2.22;1.27;;;;;;;34.30;29.01;97466.00;5071289;28;20464;-85
2021/08/01 03:54:42;;;;;;;1.67;1.40;;;;;;;34.09;29.28;97462.66;5072832;28;20055;-85
2021/08/01 03:57:10;;;;;;;1.10;0.93;;;;;;;34.35;29.06;97462.38;5066083;28;20041;-85
2021/08/01 03:59:36;;;;;;;1.55;1.00;;;;;;;34.53;28.75;97459.00;5070371;28;20562;-85
2021/08/01 04:02:03;;;;;;;1.90;1.30;;;;;;;34.40;28.97;97453.03;5069826;28;20036;-85
2021/08/01 04:04:30;;;;;;;2.45;1.42;;;;;;;34.01;29.56;97444.47;5071061;28;20028;-85
2021/08/01 04:06:56;;;;;;;1.73;0.98;;;;;;;34.09;29.69;97448.41;5071350;28;20029;-85
2021/08/01 04:09:23;;;;;;;1.60;1.48;;;;;;;34.26;29.08;97463.41;5070202;28;20047;-85
2021/08/01 04:11:49;;;;;;;1.42;1.00;;;;;;;34.52;28.86;97472.47;5072886;28;20040;-85
2021/08/01 04:14:15;;;;;;;2.03;1.20;;;;;;;34.72;28.81;97475.06;5070659;28;20095;-85
2021/08/01 04:16:41;;;;;;;5.47;1.65;;;;;;;34.52;28.69;97475.34;5069218;28;20024;-85
2021/08/01 04:19:09;;;;;;;2.42;1.42;;;;;;;33.53;30.61;97470.28;5064741;28;20500;-85
2021/08/01 04:21:38;;;;;;;2.08;1.85;;;;;;;33.06;31.35;97463.38;5063822;28;20032;-85
2021/08/01 04:24:05;;;;;;;1.90;1.80;;;;;;;32.63;32.37;97454.06;5062746;28;20025;-85
2021/08/01 04:26:31;;;;;;;3.67;1.65;;;;;;;33.00;32.28;97453.22;5071394;28;20484;-85
2021/08/01 04:28:58;;;;;;;1.23;1.10;;;;;;;33.71;30.76;97449.09;5069847;28;20042;-85
2021/08/01 04:31:24;;;;;;;1.58;1.02;;;;;;;34.49;29.63;97464.97;5065636;28;20119;-85
2021/08/01 04:33:51;;;;;;;1.40;1.30;;;;;;;35.06;28.55;97464.34;5065632;28;20044;-85
2021/08/01 04:36:17;;;;;;;1.38;1.10;;;;;;;35.13;29.04;97472.38;5072038;28;20480;-85
2021/08/01 04:38:43;;;;;;;1.40;1.20;;;;;;;34.98;30.52;97473.94;5070534;28;20029;-85
2021/08/01 04:41:09;;;;;;;1.45;1.35;;;;;;;35.12;30.25;97467.19;5069962;28;20032;-87
2021/08/01 04:43:35;;;;;;;2.17;1.00;;;;;;;35.64;29.72;97467.22;5068750;28;20484;-85
2021/08/01 04:46:01;;;;;;;2.08;1.52;;;;;;;35.99;29.27;97473.75;5070310;28;20535;-86
2021/08/01 04:48:27;;;;;;;1.95;1.23;;;;;;;36.58;28.89;97470.19;5067925;28;20056;-86
2021/08/01 04:50:53;;;;;;;1.42;1.15;;;;;;;36.81;29.83;97476.44;5069749;28;20028;-90
2021/08/01 04:53:19;;;;;;;1.15;1.05;;;;;;;36.90;29.06;97483.91;5071444;28;20063;-89
2021/08/01 04:55:45;;;;;;;1.55;1.00;;;;;;;37.02;28.85;97483.25;5068309;28;20033;-88
2021/08/01 04:58:12;;;;;;;0.70;0.70;;;;;;;37.09;28.24;97488.38;5069953;28;20569;-88
2021/08/01 05:00:38;;;;;;;0.95;0.65;;;;;;;37.10;27.80;97492.03;5070935;28;20021;-88
2021/08/01 05:03:04;;;;;;;1.02;0.93;;;;;;;37.12;28.41;97490.19;5071200;28;20089;-90
2021/08/01 05:05:35;;;;;;;2.35;1.10;;;;;;;37.27;27.87;97496.22;5071495;28;20037;-89
2021/08/01 05:08:02;;;;;;;1.35;0.80;;;;;;;37.43;27.89;97490.88;5070413;28;20028;-87
2021/08/01 05:10:28;;;;;;;0.80;0.80;;;;;;;37.48;27.86;97492.91;5070913;28;20036;-91
2021/08/01 05:12:54;;;;;;;0.98;0.90;;;;;;;37.57;27.52;97493.31;5076481;28;20496;-91
2021/08/01 05:15:20;;;;;;;0.90;0.90;;;;;;;37.60;27.45;97494.31;5075329;28;20036;-93
2021/08/01 05:17:46;;;;;;;0.80;0.80;;;;;;;37.65;27.54;97502.03;5072795;28;20488;-94
2021/08/01 05:20:13;;;;;;;1.35;1.02;;;;;;;37.65;27.64;97508.53;5076967;28;20486;-93
2021/08/01 05:22:39;;;;;;;1.90;1.10;;;;;;;37.61;26.90;97522.41;5074113;28;20098;-87
2021/08/01 05:25:06;;;;;;;1.00;0.90;;;;;;;37.64;26.57;97523.44;5073285;28;20035;-85
2021/08/01 05:27:32;;;;;;;1.77;0.90;;;;;;;37.61;26.59;97513.03;5070665;28;20045;-86
2021/08/01 05:29:58;;;;;;;1.58;1.23;;;;;;;37.48;26.45;97524.41;5073950;28;20032;-86
2021/08/01 05:32:24;;;;;;;1.05;0.80;;;;;;;37.28;26.59;97525.66;5073582;28;20488;-84
2021/08/01 05:34:51;;;;;;;0.93;0.73;;;;;;;37.30;26.91;97520.94;5068749;28;20029;-84
2021/08/01 05:37:17;;;;;;;1.33;1.20;;;;;;;37.25;27.04;97509.56;5065075;28;20120;-84
2021/08/01 05:39:43;;;;;;;1.20;1.10;;;;;;;36.91;27.82;97514.88;5066548;28;20027;-84
2021/08/01 05:42:09;;;;;;;1.20;0.98;;;;;;;36.61;28.41;97514.09;5072252;28;20443;-85
2021/08/01 05:44:35;;;;;;;1.08;0.98;;;;;;;36.63;28.46;97517.19;5061890;28;20033;-84
2021/08/01 05:47:06;;;;;;;1.05;1.00;;;;;;;36.57;28.61;97507.91;5072326;28;20055;-84
2021/08/01 05:49:33;;;;;;;1.17;1.10;;;;;;;36.03;29.26;97517.16;5071453;28;20033;-84
2021/08/01 05:52:00;;;;;;;1.20;1.10;;;;;;;35.79;29.70;97505.56;5063008;28;20028;-84
2021/08/01 05:54:26;;;;;;;1.27;1.13;;;;;;;35.85;29.66;97512.00;5069905;28;20455;-84
2021/08/01 05:56:52;;;;;;;1.38;1.27;;;;;;;36.21;29.08;97521.44;5066877;28;20025;-84
2021/08/01 05:59:18;;;;;;;1.00;0.90;;;;;;;36.61;28.58;97522.69;5061758;28;20041;-84
2021/08/01 06:01:44;;;;;;;2.35;1.50;;;;;;;36.86;27.89;97529.22;5061968;28;20033;-84
2021/08/01 06:04:10;;;;;;;1.08;0.70;;;;;;;37.00;27.46;97517.38;5061135;28;20040;-84
2021/08/01 06:06:36;;;;;;;1.20;1.10;;;;;;;36.79;28.03;97506.91;5065945;28;20074;-85
2021/08/01 06:09:03;;;;;;;0.88;0.88;;;;;;;36.46;28.41;97507.97;5069557;28;20090;-84
2021/08/01 06:11:29;;;;;;;1.20;1.10;;;;;;;36.25;29.09;97524.75;5067475;28;20055;-84
2021/08/01 06:13:55;;;;;;;1.20;1.10;;;;;;;36.37;28.90;97520.53;5064762;28;20040;-84
2021/08/01 06:16:22;;;;;;;0.80;0.80;;;;;;;36.41;29.23;97517.38;5064366;28;20024;-85
2021/08/01 06:18:48;;;;;;;1.35;1.23;;;;;;;36.04;29.52;97506.47;5069541;28;20045;-84
2021/08/01 06:21:19;;;;;;;1.40;1.02;;;;;;;35.65;30.16;97505.91;5068759;28;20040;-85
2021/08/01 06:23:48;;;;;;;;;;;;;;;34.72;31.54;97492.19;5066063;28;20089;-86
2021/08/01 06:26:15;;;;;;;3.35;1.08;;;;;;;34.83;31.45;97496.28;5059838;28;20073;-87
2021/08/01 06:28:42;;;;;;;1.58;1.27;;;;;;;34.90;31.29;97498.59;5061633;28;20421;-86
2021/08/01 06:31:09;;;;;;;2.35;0.98;;;;;;;35.00;30.68;97486.41;5065309;28;20071;-86
2021/08/01 06:33:36;;;;;;;1.20;1.10;;;;;;;35.16;30.86;97491.31;5066013;28;20032;-83
2021/08/01 06:36:14;;;;;;;1.58;1.48;;;;;;;35.54;30.12;97491.69;5064107;28;20504;-83
2021/08/01 06:38:41;;;;;;;1.05;0.95;;;;;;;35.93;29.79;97484.44;5063109;28;20392;-83
2021/08/01 06:41:07;;;;;;;1.33;1.23;;;;;;;36.37;29.38;97473.97;5068222;28;20130;-83
2021/08/01 06:43:34;;;;;;;3.70;1.92;;;;;;;36.91;28.68;97488.31;5070380;28;20037;-83
2021/08/01 06:46:00;;;;;;;1.00;0.90;;;;;;;37.12;27.55;97489.41;5059346;28;20124;-83
2021/08/01 06:48:26;;;;;;;1.25;1.10;;;;;;;36.97;28.50;97492.69;5067464;28;20031;-83
2021/08/01 06:50:53;;;;;;;1.80;1.13;;;;;;;37.22;28.09;97496.31;5055377;28;20568;-83
2021/08/01 06:53:19;;;;;;;1.08;0.95;;;;;;;37.49;27.95;97489.50;5060615;28;20056;-82
2021/08/01 06:55:45;;;;;;;2.13;1.35;;;;;;;37.77;27.78;97500.56;5064350;28;20028;-82
2021/08/01 06:58:11;;;;;;;1.30;1.20;;;;;;;37.93;27.96;97502.44;5069025;28;20040;-84
2021/08/01 07:00:37;;;;;;;0.95;0.90;;;;;;;37.86;27.22;97503.06;5067041;28;20052;-87
2021/08/01 07:03:03;;;;;;;1.08;1.00;;;;;;;37.88;27.38;97491.84;5070914;28;20081;-86
2021/08/01 07:05:30;;;;;;;1.33;1.23;;;;;;;37.85;27.67;97490.06;5070232;28;20040;-87
2021/08/01 07:07:57;;;;;;;1.95;1.40;;;;;;;37.80;27.31;97496.63;5063606;28;20041;-87
2021/08/01 07:10:24;;;;;;;1.48;1.13;;;;;;;37.73;27.14;97489.44;5071159;28;20377;-86
2021/08/01 07:12:50;;;;;;;2.50;1.10;;;;;;;37.13;28.39;97490.97;5065417;28;20051;-86
2021/08/01 07:15:24;;;;;;;1.15;1.05;;;;;;;37.34;27.64;97492.75;5068254;28;20064;-86
2021/08/01 07:17:55;;;;;;;1.90;1.17;;;;;;;37.14;28.16;97486.78;5063897;28;20044;-86
2021/08/01 07:20:21;;;;;;;1.35;1.00;;;;;;;36.76;28.81;97490.81;5066616;28;20503;-86
2021/08/01 07:22:47;;;;;;;1.83;1.30;;;;;;;37.00;28.68;97488.75;5066683;28;20029;-86
2021/08/01 07:25:13;;;;;;;1.52;1.20;;;;;;;37.38;28.13;97490.41;5063032;28;20385;-86
2021/08/01 07:27:39;;;;;;;1.05;0.95;;;;;;;37.39;27.22;97483.38;5066710;28;20112;-86
2021/08/01 07:30:06;;;;;;;1.20;1.00;;;;;;;37.06;28.86;97485.84;5069184;28;20040;-87
2021/08/01 07:32:32;;;;;;;1.25;1.15;;;;;;;36.74;28.95;97491.34;5061409;28;20037;-87
2021/08/01 07:34:58;;;;;;;2.45;1.20;;;;;;;36.69;29.19;97497.88;5061755;28;20029;-87
2021/08/01 07:37:24;;;;;;;1.65;1.20;;;;;;;35.71;30.70;97483.81;5059797;28;20037;-87
2021/08/01 07:39:50;;;;;;;1.45;1.30;;;;;;;35.57;30.59;97484.94;5063650;28;20056;-86
2021/08/01 07:42:16;;;;;;;1.10;1.00;;;;;;;33.93;33.84;97455.63;5060924;28;20397;-87
2021/08/01 07:44:46;;;;;;;1.30;1.20;;;;;;;33.33;34.90;97439.91;5063253;28;20085;-87
2021/08/01 07:47:13;;;;;;;1.40;1.30;;;;;;;34.05;34.02;97433.63;5063742;28;21022;-87
2021/08/01 07:49:39;;;;;;;1.63;1.52;;;;;;;34.36;33.35;97436.19;5064995;28;20173;-83
2021/08/01 07:52:06;;;;;;;1.85;1.48;;;;;;;33.81;34.43;97417.03;5080233;28;20507;-84
2021/08/01 07:54:32;;;;;;;1.70;1.50;;;;;;;34.28;33.33;97403.03;5063830;28;20430;-84
2021/08/01 07:56:58;;;;;;;2.15;1.80;;;;;;;34.56;32.88;97384.63;5062883;28;20099;-84
2021/08/01 07:59:24;;;;;;;2.15;1.80;;;;;;;33.96;33.57;97389.03;5062070;28;20029;-84
2021/08/01 08:01:50;;;;;;;2.58;1.80;;;;;;;34.19;33.65;97380.53;5060781;28;20048;-84
2021/08/01 08:04:16;;;;;;;2.03;1.65;;;;;;;34.83;32.59;97382.19;5061741;28;20029;-83
2021/08/01 08:06:42;;;;;;;1.70;1.60;;;;;;;35.18;32.05;97379.44;5061963;28;20041;-83
2021/08/01 08:09:08;;;;;;;3.38;1.55;;;;;;;35.81;31.09;97377.25;5064185;28;20150;-84
2021/08/01 08:11:34;;;;;;;2.42;1.60;;;;;;;36.23;30.40;97375.06;5063176;28;20033;-84
2021/08/01 08:14:00;;;;;;;1.95;1.40;;;;;;;36.11;31.21;97371.53;5062448;28;20547;-82
2021/08/01 08:16:26;;;;;;;1.98;1.65;;;;;;;36.17;30.42;97374.38;5062134;28;20035;-84
2021/08/01 08:18:52;;;;;;;2.42;2.08;;;;;;;36.02;30.62;97366.97;5063060;28;20028;-83
2021/08/01 08:21:19;;;;;;;3.53;1.45;;;;;;;35.40;31.93;97339.34;5063572;28;20029;-84
2021/08/01 08:23:45;;;;;;;1.80;1.40;;;;;;;34.63;32.85;97344.16;5068600;28;20032;-83
2021/08/01 08:26:11;;;;;;;1.45;1.35;;;;;;;34.22;33.73;97336.72;5068794;28;20064;-84
2021/08/01 08:28:37;;;;;;;1.80;1.70;;;;;;;34.02;34.20;97335.69;5062222;28;20102;-83
2021/08/01 08:31:03;;;;;;;1.63;1.25;;;;;;;34.29;33.31;97330.47;5062263;28;20051;-83
2021/08/01 08:33:29;;;;;;;2.97;1.60;;;;;;;34.98;33.57;97351.25;5064384;28;20036;-84
2021/08/01 08:35:56;;;;;;;1.85;1.48;;;;;;;36.15;31.71;97348.41;5060835;28;20100;-82
2021/08/01 08:38:22;;;;;;;1.52;1.33;;;;;;;37.06;29.55;97354.16;5058900;28;20033;-83
2021/08/01 08:40:48;;;;;;;1.10;1.00;;;;;;;37.63;28.89;97349.94;5056080;28;20136;-83
2021/08/01 08:43:15;;;;;;;1.52;1.17;;;;;;;37.95;28.92;97359.38;5069377;28;20037;-83
2021/08/01 08:45:45;;;;;;;1.27;1.10;;;;;;;38.25;27.75;97364.81;5063864;28;20467;-86
2021/08/01 08:48:12;;;;;;;;;;;;;;;38.17;28.41;97370.44;5052499;28;20401;-86
2021/08/01 08:50:40;;;;;;;1.02;1.00;;;;;;;38.10;28.29;97376.81;5059003;28;20321;-84
2021/08/01 08:53:07;;;;;;;0.90;0.90;;;;;;;38.23;28.49;97399.78;5070008;28;20400;-85
2021/08/01 08:55:34;;;;;;;1.67;1.27;;;;;;;37.82;27.83;97413.72;5070148;28;20024;-86
2021/08/01 08:58:06;;;;;;;1.75;1.45;;;;;;;37.59;28.54;97430.50;5069128;28;20115;-86
2021/08/01 09:00:33;;;;;;;1.95;1.10;;;;;;;37.85;28.34;97436.41;5068698;28;20146;-83
2021/08/01 09:03:00;;;;;;;1.52;1.30;;;;;;;38.13;28.15;97458.88;5072061;28;20033;-82
2021/08/01 09:05:27;;;;;;;2.60;1.50;;;;;;;37.76;28.48;97465.41;5069013;28;20056;-83
2021/08/01 09:07:53;;;;;;;2.80;1.42;;;;;;;37.40;28.99;97466.97;5068236;28;20081;-84
2021/08/01 09:10:19;;;;;;;1.30;1.20;;;;;;;37.07;29.43;97490.22;5068155;28;20028;-84
2021/08/01 09:12:48;;;;;;;1.30;1.20;;;;;;;37.20;29.32;97482.53;5072359;28;20484;-83
2021/08/01 09:15:21;;;;;;;1.92;1.40;;;;;;;37.41;29.36;97494.31;5070581;28;20063;-83
2021/08/01 09:17:48;;;;;;;2.60;1.15;;;;;;;37.66;29.00;97498.66;5069724;28;20063;-84
2021/08/01 09:20:15;;;;;;;1.70;1.20;;;;;;;37.79;29.01;97515.91;5071410;28;20044;-85
2021/08/01 09:22:42;;;;;;;1.30;1.20;;;;;;;37.92;28.53;97512.38;5069404;28;20483;-85
2021/08/01 09:25:18;;;;;;;1.50;1.30;;;;;;;37.95;28.49;97520.66;5070725;28;20041;-84
2021/08/01 09:27:45;;;;;;;1.77;1.20;;;;;;;37.92;28.81;97518.91;5070115;28;20040;-84
2021/08/01 09:30:12;;;;;;;2.42;1.25;;;;;;;37.92;28.19;97523.84;5071733;28;20500;-85
2021/08/01 09:32:49;;;;;;;1.73;1.40;;;;;;;38.02;28.06;97517.16;5059957;28;20110;-84
2021/08/01 09:35:22;;;;;;;1.50;1.38;;;;;;;37.73;28.46;97511.56;5067645;28;20029;-86
2021/08/01 09:37:56;;;;;;;2.20;1.08;;;;;;;37.67;28.96;97514.50;5060781;28;20029;-85
2021/08/01 09:40:27;;;;;;;4.53;1.30;;;;;;;37.34;28.98;97504.22;5063789;28;20064;-85
2021/08/01 09:42:54;;;;;;;2.83;1.17;;;;;;;37.20;29.32;97493.97;5071453;28;20032;-86
2021/08/01 09:45:21;;;;;;;0.80;0.80;;;;;;;36.61;29.04;97474.84;5071264;28;20053;-87
2021/08/01 09:47:49;;;;;;;1.77;1.23;;;;;;;36.39;28.95;97457.84;5069901;28;20115;-87
2021/08/01 09:50:17;;;;;;;2.15;1.17;;;;;;;36.14;29.77;97436.22;5069103;28;20132;-86
2021/08/01 09:52:44;;;;;;;1.10;1.00;;;;;;;35.80;29.83;97423.50;5068053;28;20036;-88
2021/08/01 09:55:18;;;;;;;0.80;0.80;;;;;;;35.98;29.93;97437.94;5071302;28;20103;-86
2021/08/01 09:57:57;;;;;;;2.58;1.20;;;;;;;36.36;29.79;97453.19;5068464;28;20028;-87
2021/08/01 10:00:23;;;;;;;1.75;0.90;;;;;;;35.85;30.80;97414.84;5067307;28;20063;-87
2021/08/01 10:02:49;;;;;;;1.10;1.00;;;;;;;36.04;30.33;97415.78;5071636;28;20123;-87
2021/08/01 10:05:21;;;;;;;1.20;1.10;;;;;;;36.06;30.34;97401.72;5077778;28;20035;-87
2021/08/01 10:07:49;;;;;;;1.10;1.00;;;;;;;36.09;29.67;97388.47;5065050;28;20033;-87
2021/08/01 10:10:20;;;;;;;1.15;1.05;;;;;;;36.01;30.53;97382.53;5074777;28;20369;-87
2021/08/01 10:12:57;;;;;;;1.02;1.00;;;;;;;36.18;30.41;97367.31;5075208;28;20081;-86
2021/08/01 10:15:24;;;;;;;1.30;1.05;;;;;;;36.23;30.87;97352.19;5085051;28;20065;-88
2021/08/01 10:17:51;;;;;;;1.48;1.10;;;;;;;36.42;30.57;97345.25;5075672;28;20123;-87
2021/08/01 10:20:17;;;;;;;3.35;0.82;;;;;;;36.35;29.32;97337.25;5071313;28;20024;-87
2021/08/01 10:22:45;;;;;;;0.75;0.73;;;;;;;36.30;31.15;97326.66;5074113;28;20408;-90
2021/08/01 10:25:33;;;;;;;0.90;0.90;;;;;;;36.39;29.66;97314.84;5066212;28;20045;-88
2021/08/01 10:28:03;;;;;;;1.00;0.90;;;;;;;36.20;31.14;97304.69;5067454;28;20036;-86
2021/08/01 10:30:30;;;;;;;0.73;0.70;;;;;;;36.60;30.93;97300.84;5058997;28;20037;-90
2021/08/01 10:33:07;;;;;;;0.90;0.60;;;;;;;36.93;29.45;97300.44;5063572;28;20032;-88
2021/08/01 10:35:41;;;;;;;2.20;0.57;;;;;;;36.81;29.31;97304.75;5057503;28;20028;-88
2021/08/01 10:38:11;;;;;;;0.80;0.75;;;;;;;36.88;29.19;97331.97;5059238;28;20036;-88
2021/08/01 10:40:37;;;;;;;0.60;0.60;;;;;;;36.81;29.09;97353.38;5055896;28;20025;-87
2021/08/01 10:43:09;;;;;;;0.75;0.70;;;;;;;36.84;28.54;97349.47;5063335;28;20392;-89
2021/08/01 10:45:43;;;;;;;0.70;0.70;;;;;;;37.05;28.97;97349.72;5063526;28;20037;-88
2021/08/01 10:48:11;;;;;;;0.68;0.68;;;;;;;37.08;28.09;97337.22;5060318;28;20032;-88
2021/08/01 10:50:38;;;;;;;0.80;0.60;;;;;;;36.80;28.18;97337.56;5067897;28;20569;-89
2021/08/01 10:53:26;;;;;;;0.75;0.60;;;;;;;36.60;29.24;97333.09;5065661;28;20074;-92
2021/08/01 10:56:06;;;;;;;0.60;0.60;;;;;;;35.81;30.42;97334.38;5066862;28;20033;-88
2021/08/01 10:58:36;;;;;;;0.88;0.63;;;;;;;35.80;30.33;97315.69;5060069;28;20489;-90
2021/08/01 11:01:07;;;;;;;0.63;0.63;;;;;;;35.98;30.81;97320.75;5065327;28;20475;-91
2021/08/01 11:03:35;;;;;;;0.75;0.65;;;;;;;36.24;30.03;97311.66;5061785;28;20055;-92
2021/08/01 11:06:03;;;;;;;0.50;0.50;;;;;;;36.38;29.53;97324.75;5070441;28;20035;-93
2021/08/01 11:08:29;;;;;;;0.60;0.60;;;;;;;36.29;29.76;97310.81;5055984;28;20049;-90
2021/08/01 11:11:19;;;;;;;0.60;0.60;;;;;;;36.22;29.79;97310.66;5065553;28;20047;-92
2021/08/01 11:13:49;;;;;;;0.60;0.60;;;;;;;35.39;30.24;97297.81;5064043;28;20419;-90
2021/08/01 11:16:31;;;;;;;0.57;0.50;;;;;;;35.92;30.34;97307.78;5058861;28;20510;-89
2021/08/01 11:18:57;;;;;;;0.40;0.40;;;;;;;36.26;29.79;97277.59;5066860;28;20492;-91
2021/08/01 11:21:38;;;;;;;1.60;0.70;;;;;;;36.00;30.42;97257.34;5058674;28;20032;-96
2021/08/01 11:24:06;;;;;;;0.40;0.40;;;;;;;36.01;29.95;97251.06;5061663;28;20480;-90
2021/08/01 11:26:33;;;;;;;0.68;0.50;;;;;;;35.92;30.26;97248.53;5069531;28;20040;-87
2021/08/01 11:29:11;;;;;;;0.88;0.40;;;;;;;36.26;29.24;97265.38;5055958;28;20056;-88
2021/08/01 11:31:39;;;;;;;0.40;0.40;;;;;;;36.77;28.41;97261.34;5056724;28;20040;-90
2021/08/01 11:34:23;;;;;;;2.40;0.47;;;;;;;36.72;28.81;97268.72;5063125;28;20025;-87
2021/08/01 11:37:10;;;;;;;0.63;0.50;;;;;;;36.30;28.67;97260.09;5058877;28;20021;-90
2021/08/01 11:39:53;;;;;;;0.40;0.40;;;;;;;35.96;29.42;97262.56;5058974;28;20112;-90